| time (UTC) | temp F | wind direction | speed knots | gust knots | rain 1hr in | rain 24hr in | rain mn in | humidity % | barometer mb |
| 20260504130807 | 78 | 200 | 2.6 | 0.0 | 0.00 | 0.00 | 0.00 | 94 | 1011.0 |
| 20260504130500 | 78 | 200 | 2.6 | 0.0 | 0.00 | 0.00 | 0.00 | 94 | 1011.0 |
| 20260504130153 | 78 | 170 | 3.5 | 0.0 | 0.00 | 0.00 | 0.00 | 94 | 1012.0 |
| 20260504120316 | 76 | 0 | 1.7 | 0.0 | 0.00 | 0.00 | 0.00 | 94 | 1011.0 |
| 20260504110715 | 76 | 0 | 1.7 | 0.0 | 0.00 | 0.00 | 0.00 | 94 | 1010.0 |
| 20260504110409 | 76 | 0 | 1.7 | 0.0 | 0.00 | 0.00 | 0.00 | 94 | 1010.0 |
| 20260504100448 | 76 | 0 | 1.7 | 0.0 | 0.00 | 0.00 | 0.00 | 94 | 1010.0 |
| 20260504100136 | 76 | 0 | 1.7 | 0.0 | 0.00 | 0.00 | 0.00 | 94 | 1010.0 |
| 20260504081839 | 76 | 160 | 3.5 | 0.0 | 0.00 | 0.00 | 0.00 | 94 | 1010.0 |
| 20260504081533 | 76 | 160 | 3.5 | 0.0 | 0.00 | 0.00 | 0.00 | 94 | 1010.0 |
| 20260504081231 | 76 | 160 | 3.5 | 0.0 | 0.00 | 0.00 | 0.00 | 94 | 1010.0 |
| 20260504080929 | 76 | 0 | 1.7 | 0.0 | 0.00 | 0.00 | 0.00 | 94 | 1010.0 |
| 20260504080622 | 76 | 0 | 1.7 | 0.0 | 0.00 | 0.00 | 0.00 | 94 | 1010.0 |
| 20260504080315 | 76 | 0 | 1.7 | 0.0 | 0.00 | 0.00 | 0.00 | 94 | 1010.0 |
| 20260504070357 | 76 | 170 | 2.6 | 0.0 | 0.00 | 0.00 | 0.00 | 94 | 1010.0 |
| 20260504060143 | 78 | 0 | 1.7 | 0.0 | 0.00 | 0.00 | 0.00 | 94 | 1011.0 |
| 20260504050527 | 78 | 0 | 1.7 | 0.0 | 0.00 | 0.00 | 0.00 | 94 | 1011.0 |
| 20260504050219 | 78 | 0 | 1.7 | 0.0 | 0.00 | 0.00 | 0.00 | 94 | 1011.0 |
| 20260504045912 | 78 | 0 | 1.7 | 0.0 | 0.00 | 0.00 | 0.00 | 94 | 1011.0 |
| 20260504045610 | 78 | 0 | 1.7 | 0.0 | 0.00 | 0.00 | 0.00 | 94 | 1011.0 |
| 20260504045259 | 78 | 0 | 1.7 | 0.0 | 0.00 | 0.00 | 0.00 | 94 | 1011.0 |
| 20260504044950 | 78 | 0 | 1.7 | 0.0 | 0.00 | 0.00 | 0.00 | 94 | 1011.0 |
| 20260504044648 | 78 | 0 | 1.7 | 0.0 | 0.00 | 0.00 | 0.00 | 94 | 1011.0 |
| 20260504044345 | 78 | 0 | 1.7 | 0.0 | 0.00 | 0.00 | 0.00 | 94 | 1011.0 |
| 20260504044044 | 78 | 0 | 1.7 | 0.0 | 0.00 | 0.00 | 0.00 | 94 | 1011.0 |
| 20260504043739 | 78 | 0 | 1.7 | 0.0 | 0.00 | 0.00 | 0.00 | 94 | 1011.0 |
| 20260504043432 | 78 | 0 | 1.7 | 0.0 | 0.00 | 0.00 | 0.00 | 94 | 1011.0 |
| 20260504043124 | 78 | 0 | 1.7 | 0.0 | 0.00 | 0.00 | 0.00 | 94 | 1011.0 |
| 20260504042812 | 78 | 0 | 1.7 | 0.0 | 0.00 | 0.00 | 0.00 | 94 | 1011.0 |
| 20260504042506 | 78 | 0 | 1.7 | 0.0 | 0.00 | 0.00 | 0.00 | 94 | 1011.0 |
| 20260504042205 | 78 | 0 | 1.7 | 0.0 | 0.00 | 0.00 | 0.00 | 94 | 1011.0 |
| 20260504041900 | 78 | 0 | 1.7 | 0.0 | 0.00 | 0.00 | 0.00 | 94 | 1011.0 |
| 20260504041246 | 78 | 0 | 1.7 | 0.0 | 0.00 | 0.00 | 0.00 | 94 | 1011.0 |
| 20260504040939 | 78 | 0 | 1.7 | 0.0 | 0.00 | 0.00 | 0.00 | 94 | 1011.0 |
| 20260504040631 | 78 | 0 | 1.7 | 0.0 | 0.00 | 0.00 | 0.00 | 94 | 1011.0 |
| 20260504040325 | 78 | 120 | 3.5 | 0.0 | 0.00 | 0.00 | 0.00 | 89 | 1012.0 |
| 20260504040022 | 78 | 120 | 3.5 | 0.0 | 0.00 | 0.00 | 0.00 | 89 | 1012.0 |
| 20260504035721 | 78 | 120 | 3.5 | 0.0 | 0.00 | 0.00 | 0.00 | 89 | 1012.0 |
| 20260504035414 | 78 | 120 | 3.5 | 0.0 | 0.00 | 0.00 | 0.00 | 89 | 1012.0 |
| 20260504035113 | 78 | 120 | 3.5 | 0.0 | 0.00 | 0.00 | 0.00 | 89 | 1012.0 |
| 20260504034811 | 78 | 120 | 3.5 | 0.0 | 0.00 | 0.00 | 0.00 | 89 | 1012.0 |
| 20260504034504 | 78 | 120 | 3.5 | 0.0 | 0.00 | 0.00 | 0.00 | 89 | 1012.0 |
| 20260504034149 | 78 | 120 | 3.5 | 0.0 | 0.00 | 0.00 | 0.00 | 89 | 1012.0 |
| 20260504033829 | 78 | 120 | 3.5 | 0.0 | 0.00 | 0.00 | 0.00 | 89 | 1012.0 |
| 20260504033525 | 78 | 120 | 3.5 | 0.0 | 0.00 | 0.00 | 0.00 | 89 | 1012.0 |
| 20260504033220 | 78 | 120 | 3.5 | 0.0 | 0.00 | 0.00 | 0.00 | 89 | 1012.0 |
| 20260504032910 | 78 | 120 | 3.5 | 0.0 | 0.00 | 0.00 | 0.00 | 89 | 1011.0 |
| 20260504032604 | 78 | 120 | 3.5 | 0.0 | 0.00 | 0.00 | 0.00 | 89 | 1011.0 |
| 20260504032304 | 78 | 120 | 3.5 | 0.0 | 0.00 | 0.00 | 0.00 | 89 | 1011.0 |
| 20260504031956 | 78 | 120 | 3.5 | 0.0 | 0.00 | 0.00 | 0.00 | 89 | 1011.0 |
| 20260504031651 | 78 | 120 | 3.5 | 0.0 | 0.00 | 0.00 | 0.00 | 89 | 1011.0 |
| 20260504031347 | 78 | 120 | 3.5 | 0.0 | 0.00 | 0.00 | 0.00 | 89 | 1011.0 |
| 20260504031044 | 78 | 120 | 3.5 | 0.0 | 0.00 | 0.00 | 0.00 | 89 | 1011.0 |
| 20260504030738 | 78 | 120 | 3.5 | 0.0 | 0.00 | 0.00 | 0.00 | 89 | 1011.0 |
| 20260504030435 | 78 | 0 | 1.7 | 0.0 | 0.00 | 0.00 | 0.00 | 89 | 1011.0 |
| 20260504030127 | 78 | 0 | 1.7 | 0.0 | 0.00 | 0.00 | 0.00 | 89 | 1012.0 |
| 20260504025820 | 78 | 0 | 1.7 | 0.0 | 0.00 | 0.00 | 0.00 | 89 | 1012.0 |
| 20260504025203 | 78 | 0 | 1.7 | 0.0 | 0.00 | 0.00 | 0.00 | 89 | 1012.0 |
| 20260504024845 | 78 | 0 | 1.7 | 0.0 | 0.00 | 0.00 | 0.00 | 89 | 1012.0 |
| 20260504024542 | 78 | 0 | 1.7 | 0.0 | 0.00 | 0.00 | 0.00 | 89 | 1012.0 |
| 20260504024236 | 78 | 0 | 1.7 | 0.0 | 0.00 | 0.00 | 0.00 | 89 | 1012.0 |
| 20260504023929 | 78 | 0 | 1.7 | 0.0 | 0.00 | 0.00 | 0.00 | 89 | 1012.0 |
| 20260504023622 | 78 | 0 | 1.7 | 0.0 | 0.00 | 0.00 | 0.00 | 89 | 1012.0 |
| 20260504023311 | 78 | 0 | 1.7 | 0.0 | 0.00 | 0.00 | 0.00 | 89 | 1011.0 |
| 20260504023004 | 78 | 0 | 1.7 | 0.0 | 0.00 | 0.00 | 0.00 | 89 | 1011.0 |
| 20260504022702 | 78 | 0 | 1.7 | 0.0 | 0.00 | 0.00 | 0.00 | 89 | 1011.0 |
| 20260504022401 | 78 | 0 | 1.7 | 0.0 | 0.00 | 0.00 | 0.00 | 89 | 1011.0 |
| 20260504022054 | 78 | 0 | 1.7 | 0.0 | 0.00 | 0.00 | 0.00 | 89 | 1011.0 |
| 20260504021753 | 78 | 0 | 1.7 | 0.0 | 0.00 | 0.00 | 0.00 | 89 | 1011.0 |
| 20260504021448 | 78 | 0 | 1.7 | 0.0 | 0.00 | 0.00 | 0.00 | 89 | 1011.0 |
| 20260504021141 | 78 | 0 | 1.7 | 0.0 | 0.00 | 0.00 | 0.00 | 89 | 1011.0 |
| 20260504020835 | 78 | 0 | 1.7 | 0.0 | 0.00 | 0.00 | 0.00 | 89 | 1011.0 |
| 20260504020525 | 78 | 0 | 1.7 | 0.0 | 0.00 | 0.00 | 0.00 | 89 | 1011.0 |
| 20260504020214 | 80 | 360 | 4.3 | 0.0 | 0.00 | 0.00 | 0.00 | 89 | 1011.0 |
| 20260504015907 | 80 | 360 | 4.3 | 0.0 | 0.00 | 0.00 | 0.00 | 89 | 1011.0 |
| 20260504015559 | 80 | 360 | 4.3 | 0.0 | 0.00 | 0.00 | 0.00 | 89 | 1011.0 |
| 20260504015256 | 80 | 360 | 4.3 | 0.0 | 0.00 | 0.00 | 0.00 | 89 | 1011.0 |
| 20260504014942 | 80 | 360 | 4.3 | 0.0 | 0.00 | 0.00 | 0.00 | 89 | 1011.0 |
| 20260504014639 | 80 | 360 | 4.3 | 0.0 | 0.00 | 0.00 | 0.00 | 89 | 1011.0 |
| 20260504014332 | 80 | 360 | 4.3 | 0.0 | 0.00 | 0.00 | 0.00 | 89 | 1011.0 |
| 20260504014021 | 80 | 360 | 4.3 | 0.0 | 0.00 | 0.00 | 0.00 | 89 | 1011.0 |
| 20260504012717 | 80 | 360 | 4.3 | 0.0 | 0.00 | 0.00 | 0.00 | 89 | 1010.0 |
| 20260504012359 | 80 | 360 | 4.3 | 0.0 | 0.00 | 0.00 | 0.00 | 89 | 1010.0 |
| 20260504012053 | 80 | 360 | 4.3 | 0.0 | 0.00 | 0.00 | 0.00 | 89 | 1010.0 |
| 20260504011751 | 80 | 360 | 4.3 | 0.0 | 0.00 | 0.00 | 0.00 | 89 | 1010.0 |
| 20260504011445 | 80 | 360 | 4.3 | 0.0 | 0.00 | 0.00 | 0.00 | 89 | 1010.0 |
| 20260504010826 | 80 | 360 | 4.3 | 0.0 | 0.00 | 0.00 | 0.00 | 89 | 1010.0 |
| 20260504005852 | 82 | 330 | 3.5 | 0.0 | 0.00 | 0.00 | 0.00 | 89 | 1010.0 |
| 20260504005547 | 82 | 330 | 3.5 | 0.0 | 0.00 | 0.00 | 0.00 | 89 | 1010.0 |
| 20260504005239 | 82 | 330 | 3.5 | 0.0 | 0.00 | 0.00 | 0.00 | 89 | 1010.0 |
| 20260504004936 | 82 | 330 | 3.5 | 0.0 | 0.00 | 0.00 | 0.00 | 89 | 1010.0 |
| 20260504004626 | 82 | 330 | 3.5 | 0.0 | 0.00 | 0.00 | 0.00 | 89 | 1010.0 |
| 20260504004317 | 82 | 330 | 3.5 | 0.0 | 0.00 | 0.00 | 0.00 | 89 | 1010.0 |
| 20260504004012 | 82 | 330 | 3.5 | 0.0 | 0.00 | 0.00 | 0.00 | 89 | 1010.0 |
| 20260504003706 | 82 | 330 | 3.5 | 0.0 | 0.00 | 0.00 | 0.00 | 89 | 1010.0 |
| 20260504003359 | 82 | 330 | 3.5 | 0.0 | 0.00 | 0.00 | 0.00 | 89 | 1010.0 |
| 20260504003057 | 82 | 330 | 3.5 | 0.0 | 0.00 | 0.00 | 0.00 | 89 | 1010.0 |
| 20260504002754 | 82 | 330 | 3.5 | 0.0 | 0.00 | 0.00 | 0.00 | 89 | 1009.0 |
| 20260504002448 | 82 | 330 | 3.5 | 0.0 | 0.00 | 0.00 | 0.00 | 89 | 1009.0 |
| 20260504002135 | 82 | 330 | 3.5 | 0.0 | 0.00 | 0.00 | 0.00 | 89 | 1009.0 |
| 20260504001824 | 82 | 330 | 3.5 | 0.0 | 0.00 | 0.00 | 0.00 | 89 | 1009.0 |
| 20260504001518 | 82 | 330 | 3.5 | 0.0 | 0.00 | 0.00 | 0.00 | 89 | 1009.0 |
| 20260504001214 | 82 | 330 | 3.5 | 0.0 | 0.00 | 0.00 | 0.00 | 89 | 1009.0 |
| 20260504000915 | 85 | 100 | 2.6 | 0.0 | 0.00 | 0.00 | 0.00 | 79 | 1009.0 |
| 20260504000609 | 85 | 100 | 2.6 | 0.0 | 0.00 | 0.00 | 0.00 | 79 | 1009.0 |
| 20260504000307 | 85 | 100 | 2.6 | 0.0 | 0.00 | 0.00 | 0.00 | 79 | 1009.0 |
| 20260503235952 | 85 | 100 | 2.6 | 0.0 | 0.00 | 0.00 | 0.00 | 79 | 1009.0 |
| 20260503235645 | 85 | 100 | 2.6 | 0.0 | 0.00 | 0.00 | 0.00 | 79 | 1009.0 |
| 20260503235343 | 85 | 100 | 2.6 | 0.0 | 0.00 | 0.00 | 0.00 | 79 | 1009.0 |
| 20260503235039 | 85 | 100 | 2.6 | 0.0 | 0.00 | 0.00 | 0.00 | 79 | 1009.0 |
| 20260503234423 | 85 | 100 | 2.6 | 0.0 | 0.00 | 0.00 | 0.00 | 79 | 1009.0 |
| 20260503234121 | 85 | 100 | 2.6 | 0.0 | 0.00 | 0.00 | 0.00 | 79 | 1009.0 |
| 20260503233810 | 85 | 100 | 2.6 | 0.0 | 0.00 | 0.00 | 0.00 | 79 | 1009.0 |
| 20260503233452 | 85 | 100 | 2.6 | 0.0 | 0.00 | 0.00 | 0.00 | 79 | 1009.0 |
| 20260503233138 | 85 | 100 | 2.6 | 0.0 | 0.00 | 0.00 | 0.00 | 79 | 1009.0 |
| 20260503232756 | 85 | 100 | 2.6 | 0.0 | 0.00 | 0.00 | 0.00 | 79 | 1008.0 |
| 20260503232455 | 85 | 100 | 2.6 | 0.0 | 0.00 | 0.00 | 0.00 | 79 | 1008.0 |
| 20260503232152 | 85 | 100 | 2.6 | 0.0 | 0.00 | 0.00 | 0.00 | 79 | 1008.0 |
| 20260503231846 | 85 | 100 | 2.6 | 0.0 | 0.00 | 0.00 | 0.00 | 79 | 1008.0 |
| 20260503231540 | 85 | 100 | 2.6 | 0.0 | 0.00 | 0.00 | 0.00 | 79 | 1008.0 |
| 20260503231238 | 85 | 100 | 2.6 | 0.0 | 0.00 | 0.00 | 0.00 | 79 | 1008.0 |
| 20260503230936 | 85 | 100 | 2.6 | 0.0 | 0.00 | 0.00 | 0.00 | 79 | 1008.0 |
| 20260503230635 | 87 | 110 | 4.3 | 0.0 | 0.00 | 0.00 | 0.00 | 74 | 1008.0 |
| 20260503230032 | 87 | 110 | 4.3 | 0.0 | 0.00 | 0.00 | 0.00 | 74 | 1008.0 |
| 20260503225726 | 87 | 110 | 4.3 | 0.0 | 0.00 | 0.00 | 0.00 | 74 | 1008.0 |
| 20260503225111 | 87 | 110 | 4.3 | 0.0 | 0.00 | 0.00 | 0.00 | 74 | 1008.0 |
| 20260503224809 | 87 | 110 | 4.3 | 0.0 | 0.00 | 0.00 | 0.00 | 74 | 1008.0 |
| 20260503224508 | 87 | 110 | 4.3 | 0.0 | 0.00 | 0.00 | 0.00 | 74 | 1008.0 |
| 20260503224207 | 87 | 110 | 4.3 | 0.0 | 0.00 | 0.00 | 0.00 | 74 | 1008.0 |
| 20260503223904 | 87 | 110 | 4.3 | 0.0 | 0.00 | 0.00 | 0.00 | 74 | 1008.0 |
| 20260503223603 | 87 | 110 | 4.3 | 0.0 | 0.00 | 0.00 | 0.00 | 74 | 1008.0 |
| 20260503223256 | 87 | 110 | 4.3 | 0.0 | 0.00 | 0.00 | 0.00 | 74 | 1008.0 |
| 20260503221912 | 87 | 110 | 4.3 | 0.0 | 0.00 | 0.00 | 0.00 | 74 | 1008.0 |
| 20260503221609 | 87 | 110 | 4.3 | 0.0 | 0.00 | 0.00 | 0.00 | 74 | 1008.0 |
| 20260503221301 | 87 | 110 | 4.3 | 0.0 | 0.00 | 0.00 | 0.00 | 74 | 1008.0 |
| 20260503220331 | 89 | 0 | 0.9 | 0.0 | 0.00 | 0.00 | 0.00 | 66 | 1008.0 |
| 20260503215450 | 89 | 0 | 0.9 | 0.0 | 0.00 | 0.00 | 0.00 | 66 | 1008.0 |
| 20260503215144 | 89 | 0 | 0.9 | 0.0 | 0.00 | 0.00 | 0.00 | 66 | 1008.0 |
| 20260503214836 | 89 | 0 | 0.9 | 0.0 | 0.00 | 0.00 | 0.00 | 66 | 1008.0 |
| 20260503214533 | 89 | 0 | 0.9 | 0.0 | 0.00 | 0.00 | 0.00 | 66 | 1008.0 |
| 20260503214231 | 89 | 0 | 0.9 | 0.0 | 0.00 | 0.00 | 0.00 | 66 | 1008.0 |
| 20260503213626 | 89 | 0 | 0.9 | 0.0 | 0.00 | 0.00 | 0.00 | 66 | 1008.0 |
| 20260503213324 | 89 | 0 | 0.9 | 0.0 | 0.00 | 0.00 | 0.00 | 66 | 1007.0 |
| 20260503213018 | 89 | 0 | 0.9 | 0.0 | 0.00 | 0.00 | 0.00 | 66 | 1008.0 |
| 20260503212714 | 89 | 0 | 0.9 | 0.0 | 0.00 | 0.00 | 0.00 | 66 | 1007.0 |
| 20260503212411 | 89 | 0 | 0.9 | 0.0 | 0.00 | 0.00 | 0.00 | 66 | 1007.0 |
| 20260503212036 | 89 | 0 | 0.9 | 0.0 | 0.00 | 0.00 | 0.00 | 66 | 1008.0 |
| 20260503211735 | 89 | 0 | 0.9 | 0.0 | 0.00 | 0.00 | 0.00 | 66 | 1008.0 |
| 20260503211429 | 89 | 0 | 0.9 | 0.0 | 0.00 | 0.00 | 0.00 | 66 | 1008.0 |
| 20260503211125 | 89 | 0 | 0.9 | 0.0 | 0.00 | 0.00 | 0.00 | 66 | 1008.0 |
| 20260503210822 | 89 | 0 | 0.9 | 0.0 | 0.00 | 0.00 | 0.00 | 66 | 1008.0 |
| 20260503210520 | 91 | 0 | 2.6 | 0.0 | 0.00 | 0.00 | 0.00 | 62 | 1008.0 |
| 20260503210217 | 91 | 0 | 2.6 | 0.0 | 0.00 | 0.00 | 0.00 | 62 | 1008.0 |
| 20260503205915 | 91 | 0 | 2.6 | 0.0 | 0.00 | 0.00 | 0.00 | 62 | 1008.0 |
| 20260503205613 | 91 | 0 | 2.6 | 0.0 | 0.00 | 0.00 | 0.00 | 62 | 1008.0 |
| 20260503205312 | 91 | 0 | 2.6 | 0.0 | 0.00 | 0.00 | 0.00 | 62 | 1008.0 |
| 20260503205011 | 91 | 0 | 2.6 | 0.0 | 0.00 | 0.00 | 0.00 | 62 | 1008.0 |
| 20260503204709 | 91 | 0 | 2.6 | 0.0 | 0.00 | 0.00 | 0.00 | 62 | 1008.0 |
| 20260503204409 | 91 | 0 | 2.6 | 0.0 | 0.00 | 0.00 | 0.00 | 62 | 1008.0 |
| 20260503204105 | 91 | 0 | 2.6 | 0.0 | 0.00 | 0.00 | 0.00 | 62 | 1008.0 |
| 20260503203804 | 91 | 0 | 2.6 | 0.0 | 0.00 | 0.00 | 0.00 | 62 | 1008.0 |
| 20260503203503 | 91 | 0 | 2.6 | 0.0 | 0.00 | 0.00 | 0.00 | 62 | 1008.0 |
| 20260503203156 | 91 | 0 | 2.6 | 0.0 | 0.00 | 0.00 | 0.00 | 62 | 1008.0 |
| 20260503202853 | 91 | 0 | 2.6 | 0.0 | 0.00 | 0.00 | 0.00 | 62 | 1008.0 |
| 20260503202551 | 91 | 0 | 2.6 | 0.0 | 0.00 | 0.00 | 0.00 | 62 | 1009.0 |
| 20260503202249 | 91 | 0 | 2.6 | 0.0 | 0.00 | 0.00 | 0.00 | 62 | 1008.0 |
| 20260503201947 | 91 | 0 | 2.6 | 0.0 | 0.00 | 0.00 | 0.00 | 62 | 1008.0 |
| 20260503201638 | 91 | 0 | 2.6 | 0.0 | 0.00 | 0.00 | 0.00 | 62 | 1009.0 |
| 20260503201337 | 91 | 0 | 2.6 | 0.0 | 0.00 | 0.00 | 0.00 | 62 | 1009.0 |
| 20260503201034 | 91 | 0 | 2.6 | 0.0 | 0.00 | 0.00 | 0.00 | 62 | 1009.0 |
| 20260503200733 | 87 | 0 | 1.7 | 0.0 | 0.00 | 0.00 | 0.00 | 70 | 1009.0 |
| 20260503200429 | 87 | 0 | 1.7 | 0.0 | 0.00 | 0.00 | 0.00 | 70 | 1009.0 |
| 20260503200127 | 87 | 0 | 1.7 | 0.0 | 0.00 | 0.00 | 0.00 | 70 | 1009.0 |
| 20260503195825 | 87 | 0 | 1.7 | 0.0 | 0.00 | 0.00 | 0.00 | 70 | 1009.0 |
| 20260503195524 | 87 | 0 | 1.7 | 0.0 | 0.00 | 0.00 | 0.00 | 70 | 1009.0 |
| 20260503195222 | 87 | 0 | 1.7 | 0.0 | 0.00 | 0.00 | 0.00 | 70 | 1009.0 |
| 20260503194921 | 87 | 0 | 1.7 | 0.0 | 0.00 | 0.00 | 0.00 | 70 | 1009.0 |
| 20260503194609 | 87 | 0 | 1.7 | 0.0 | 0.00 | 0.00 | 0.00 | 70 | 1009.0 |
| 20260503194259 | 87 | 0 | 1.7 | 0.0 | 0.00 | 0.00 | 0.00 | 70 | 1009.0 |
| 20260503193953 | 87 | 0 | 1.7 | 0.0 | 0.00 | 0.00 | 0.00 | 70 | 1009.0 |
| 20260503193652 | 87 | 0 | 1.7 | 0.0 | 0.00 | 0.00 | 0.00 | 70 | 1009.0 |
| 20260503193348 | 87 | 0 | 1.7 | 0.0 | 0.00 | 0.00 | 0.00 | 70 | 1009.0 |
| 20260503193041 | 87 | 0 | 1.7 | 0.0 | 0.00 | 0.00 | 0.00 | 70 | 1009.0 |
| 20260503192736 | 87 | 0 | 1.7 | 0.0 | 0.00 | 0.00 | 0.00 | 70 | 1010.0 |
| 20260503192435 | 87 | 0 | 1.7 | 0.0 | 0.00 | 0.00 | 0.00 | 70 | 1010.0 |
| 20260503192133 | 87 | 0 | 1.7 | 0.0 | 0.00 | 0.00 | 0.00 | 70 | 1010.0 |
| 20260503191530 | 87 | 0 | 1.7 | 0.0 | 0.00 | 0.00 | 0.00 | 70 | 1010.0 |
| 20260503191229 | 87 | 0 | 1.7 | 0.0 | 0.00 | 0.00 | 0.00 | 70 | 1010.0 |
| 20260503190922 | 87 | 0 | 1.7 | 0.0 | 0.00 | 0.00 | 0.00 | 70 | 1010.0 |
| 20260503190621 | 87 | 0 | 1.7 | 0.0 | 0.00 | 0.00 | 0.00 | 70 | 1010.0 |
| 20260503190318 | 89 | 0 | 1.7 | 0.0 | 0.00 | 0.00 | 0.00 | 66 | 1010.0 |
| 20260503190016 | 89 | 0 | 1.7 | 0.0 | 0.00 | 0.00 | 0.00 | 66 | 1010.0 |
| 20260503185715 | 89 | 0 | 1.7 | 0.0 | 0.00 | 0.00 | 0.00 | 66 | 1010.0 |
| 20260503184734 | 89 | 0 | 1.7 | 0.0 | 0.00 | 0.00 | 0.00 | 66 | 1010.0 |
| 20260503184413 | 89 | 0 | 1.7 | 0.0 | 0.00 | 0.00 | 0.00 | 66 | 1010.0 |
| 20260503184111 | 89 | 0 | 1.7 | 0.0 | 0.00 | 0.00 | 0.00 | 66 | 1010.0 |
| 20260503183808 | 89 | 0 | 1.7 | 0.0 | 0.00 | 0.00 | 0.00 | 66 | 1010.0 |
| 20260503183501 | 89 | 0 | 1.7 | 0.0 | 0.00 | 0.00 | 0.00 | 66 | 1010.0 |
| 20260503183158 | 89 | 0 | 1.7 | 0.0 | 0.00 | 0.00 | 0.00 | 66 | 1010.0 |
| 20260503182852 | 89 | 0 | 1.7 | 0.0 | 0.00 | 0.00 | 0.00 | 66 | 1011.0 |
| 20260503182547 | 89 | 0 | 1.7 | 0.0 | 0.00 | 0.00 | 0.00 | 66 | 1011.0 |
| 20260503182240 | 89 | 0 | 1.7 | 0.0 | 0.00 | 0.00 | 0.00 | 66 | 1011.0 |
| 20260503181914 | 89 | 0 | 1.7 | 0.0 | 0.00 | 0.00 | 0.00 | 66 | 1011.0 |
| 20260503181258 | 89 | 0 | 1.7 | 0.0 | 0.00 | 0.00 | 0.00 | 66 | 1011.0 |
| 20260503180953 | 87 | 0 | 3.5 | 0.0 | 0.00 | 0.00 | 0.00 | 74 | 1011.0 |
| 20260503180645 | 89 | 0 | 1.7 | 0.0 | 0.00 | 0.00 | 0.00 | 66 | 1011.0 |
| 20260503180341 | 87 | 0 | 3.5 | 0.0 | 0.00 | 0.00 | 0.00 | 74 | 1011.0 |
| 20260503180032 | 87 | 0 | 3.5 | 0.0 | 0.00 | 0.00 | 0.00 | 74 | 1011.0 |
| 20260503175720 | 87 | 0 | 3.5 | 0.0 | 0.00 | 0.00 | 0.00 | 74 | 1011.0 |
| 20260503175414 | 87 | 0 | 3.5 | 0.0 | 0.00 | 0.00 | 0.00 | 74 | 1011.0 |
| 20260503175106 | 87 | 0 | 3.5 | 0.0 | 0.00 | 0.00 | 0.00 | 74 | 1011.0 |
| 20260503174756 | 87 | 0 | 3.5 | 0.0 | 0.00 | 0.00 | 0.00 | 74 | 1011.0 |
| 20260503174442 | 87 | 0 | 3.5 | 0.0 | 0.00 | 0.00 | 0.00 | 74 | 1011.0 |
| 20260503174132 | 87 | 0 | 3.5 | 0.0 | 0.00 | 0.00 | 0.00 | 74 | 1011.0 |
| 20260503173828 | 87 | 0 | 3.5 | 0.0 | 0.00 | 0.00 | 0.00 | 74 | 1011.0 |
| 20260503173523 | 87 | 0 | 3.5 | 0.0 | 0.00 | 0.00 | 0.00 | 74 | 1012.0 |
| 20260503173217 | 87 | 0 | 3.5 | 0.0 | 0.00 | 0.00 | 0.00 | 74 | 1012.0 |
| 20260503172911 | 87 | 0 | 3.5 | 0.0 | 0.00 | 0.00 | 0.00 | 74 | 1012.0 |
| 20260503172558 | 87 | 0 | 3.5 | 0.0 | 0.00 | 0.00 | 0.00 | 74 | 1012.0 |
| 20260503172248 | 87 | 0 | 3.5 | 0.0 | 0.00 | 0.00 | 0.00 | 74 | 1012.0 |
| 20260503171939 | 87 | 0 | 3.5 | 0.0 | 0.00 | 0.00 | 0.00 | 74 | 1012.0 |
| 20260503171635 | 87 | 0 | 3.5 | 0.0 | 0.00 | 0.00 | 0.00 | 74 | 1012.0 |
| 20260503171330 | 87 | 0 | 3.5 | 0.0 | 0.00 | 0.00 | 0.00 | 74 | 1012.0 |
| 20260503171026 | 84 | 120 | 2.6 | 0.0 | 0.00 | 0.00 | 0.00 | 79 | 1012.0 |
| 20260503170722 | 84 | 120 | 2.6 | 0.0 | 0.00 | 0.00 | 0.00 | 79 | 1012.0 |
| 20260503170416 | 84 | 120 | 2.6 | 0.0 | 0.00 | 0.00 | 0.00 | 79 | 1012.0 |
| 20260503170113 | 84 | 120 | 2.6 | 0.0 | 0.00 | 0.00 | 0.00 | 79 | 1012.0 |
| 20260503150724 | 78 | 170 | 2.6 | 0.0 | 0.00 | 0.00 | 0.00 | 89 | 1013.0 |
| 20260503150419 | 78 | 170 | 2.6 | 0.0 | 0.00 | 0.00 | 0.00 | 89 | 1013.0 |
| 20260503150112 | 78 | 170 | 2.6 | 0.0 | 0.00 | 0.00 | 0.00 | 89 | 1013.0 |
| 20260503140231 | 76 | 0 | 1.7 | 0.0 | 0.00 | 0.00 | 0.00 | 94 | 1013.0 |